Time;durP1;ratioP1;P1;durP2;ratioP2;P2;SDS_P1;SDS_P2;PMS_P1;PMS_P2;Temp;Humidity;BMP_temperature;BMP_pressure;BME280_temperature;BME280_humidity;BME280_pressure;Samples;Min_cycle;Max_cycle;Signal;HPM_P1;HPM_P2
2023/01/02 00:00:05;;;;;;;0.40;0.40;;;13.50;91.10;;;;;;5059854;28;20032;-84
2023/01/02 00:02:30;;;;;;;;;;;13.50;91.20;;;;;;5055960;28;20499;-85
2023/01/02 00:04:56;;;;;;;0.20;0.20;;;13.40;91.50;;;;;;5058593;28;19916;-85
2023/01/02 00:07:22;;;;;;;0.20;0.20;;;13.40;91.30;;;;;;5063905;28;20036;-86
2023/01/02 00:09:47;;;;;;;3.40;1.40;;;13.50;91.30;;;;;;5051789;28;20560;-87
2023/01/02 00:12:13;;;;;;;0.13;0.13;;;13.40;91.50;;;;;;5056297;28;20032;-87
2023/01/02 00:14:39;;;;;;;1.70;1.35;;;13.30;91.70;;;;;;5056113;28;20036;-85
2023/01/02 00:17:04;;;;;;;0.08;0.08;;;13.40;91.30;;;;;;5056901;28;20022;-85
2023/01/02 00:19:30;;;;;;;0.03;0.03;;;13.60;91.10;;;;;;5057727;28;20855;-86
2023/01/02 00:21:56;;;;;;;0.20;0.20;;;13.50;91.10;;;;;;5060694;28;20048;-85
2023/01/02 00:24:22;;;;;;;0.63;0.63;;;13.50;91.00;;;;;;5059456;28;20040;-85
2023/01/02 00:26:47;;;;;;;0.20;0.20;;;13.60;90.80;;;;;;5054044;28;20115;-84
2023/01/02 00:29:13;;;;;;;1.50;1.40;;;13.60;90.80;;;;;;5057988;28;20115;-86
2023/01/02 00:31:39;;;;;;;0.68;0.63;;;13.50;90.90;;;;;;5056802;28;20127;-85
2023/01/02 00:34:04;;;;;;;0.77;0.77;;;13.40;91.00;;;;;;5057455;28;20625;-85
2023/01/02 00:36:30;;;;;;;2.27;0.83;;;13.40;91.00;;;;;;5056413;28;20025;-85
2023/01/02 00:38:56;;;;;;;6.37;1.73;;;13.50;90.80;;;;;;5057218;28;20031;-84
2023/01/02 00:41:22;;;;;;;2.50;0.70;;;13.40;90.80;;;;;;5057427;28;20107;-85
2023/01/02 00:43:48;;;;;;;0.70;0.70;;;13.30;91.10;;;;;;5052129;28;20373;-85
2023/01/02 00:46:14;;;;;;;0.28;0.28;;;13.30;91.10;;;;;;5052076;28;20039;-84
2023/01/02 00:48:40;;;;;;;5.95;0.95;;;13.40;90.90;;;;;;5059588;28;20114;-85
2023/01/02 00:51:07;;;;;;;0.27;0.27;;;13.30;91.00;;;;;;5057129;28;20033;-85
2023/01/02 00:53:32;;;;;;;0.30;0.30;;;13.50;90.60;;;;;;5052671;28;20028;-85
2023/01/02 00:55:58;;;;;;;0.20;0.20;;;13.50;90.70;;;;;;5048473;28;20028;-86
2023/01/02 00:58:24;;;;;;;1.08;0.95;;;13.40;90.80;;;;;;5053051;28;20024;-84
2023/01/02 01:00:50;;;;;;;0.10;0.10;;;13.40;90.90;;;;;;5051708;28;20765;-83
2023/01/02 01:03:16;;;;;;;0.40;0.40;;;13.40;91.00;;;;;;5054504;28;20365;-82
2023/01/02 01:05:42;;;;;;;0.60;0.60;;;13.30;91.10;;;;;;5058971;28;20031;-84
2023/01/02 01:08:07;;;;;;;0.53;0.53;;;13.40;90.90;;;;;;5058938;28;20056;-83
2023/01/02 01:10:35;;;;;;;0.97;0.73;;;13.40;90.90;;;;;;5054221;28;21458;-83
2023/01/02 01:13:01;;;;;;;1.05;0.95;;;13.40;91.00;;;;;;5058161;28;20927;-83
2023/01/02 01:15:26;;;;;;;0.50;0.47;;;13.30;91.10;;;;;;5061253;28;20124;-83
2023/01/02 01:17:53;;;;;;;0.45;0.45;;;13.40;91.00;;;;;;5055721;28;20049;-85
2023/01/02 01:20:19;;;;;;;1.40;1.03;;;13.30;91.20;;;;;;5057280;28;20727;-84
2023/01/02 01:22:45;;;;;;;0.20;0.20;;;13.50;90.70;;;;;;5062745;28;20815;-84
2023/01/02 01:25:10;;;;;;;12.32;0.75;;;13.50;90.80;;;;;;5057332;28;20046;-83
2023/01/02 01:27:36;;;;;;;1.33;1.23;;;13.60;90.70;;;;;;5054489;28;20165;-82
2023/01/02 01:30:03;;;;;;;0.38;0.38;;;13.50;91.00;;;;;;5056692;28;20110;-83
2023/01/02 01:32:29;;;;;;;2.60;1.30;;;13.50;90.80;;;;;;5058882;28;20075;-83
2023/01/02 01:34:55;;;;;;;8.80;1.57;;;13.60;90.60;;;;;;5052000;28;20514;-84
2023/01/02 01:37:20;;;;;;;0.47;0.47;;;13.50;90.90;;;;;;5058259;28;20062;-83
2023/01/02 01:39:46;;;;;;;0.10;0.10;;;13.40;91.00;;;;;;5065406;28;20052;-83
2023/01/02 01:42:13;;;;;;;2.53;1.77;;;13.50;91.00;;;;;;5051781;28;20029;-87
2023/01/02 01:44:47;;;;;;;2.20;2.00;;;13.40;91.30;;;;;;5067906;28;20037;-86
2023/01/02 01:47:27;;;;;;;0.30;0.30;;;13.40;91.40;;;;;;5061843;28;20497;-85
2023/01/02 01:50:31;;;;;;;0.15;0.15;;;13.50;91.30;;;;;;5055689;28;20033;-84
2023/01/02 01:53:17;;;;;;;0.65;0.65;;;13.50;91.50;;;;;;5053256;28;20124;-84
2023/01/02 01:55:48;;;;;;;14.60;1.80;;;13.50;91.50;;;;;;5053791;28;20489;-84
2023/01/02 01:58:19;;;;;;;0.40;0.40;;;13.50;91.50;;;;;;5056369;28;20041;-84
2023/01/02 02:00:46;;;;;;;1.45;0.98;;;13.50;91.80;;;;;;5054039;28;20032;-85
2023/01/02 02:03:18;;;;;;;0.20;0.20;;;13.50;91.50;;;;;;5071844;28;20036;-84
2023/01/02 02:05:45;;;;;;;0.15;0.15;;;13.40;91.80;;;;;;5056647;28;20039;-85
2023/01/02 02:08:30;;;;;;;0.88;0.82;;;13.50;91.80;;;;;;5054129;28;20063;-84
2023/01/02 02:10:58;;;;;;;4.45;0.90;;;13.50;91.90;;;;;;5059086;28;20054;-85
2023/01/02 02:13:24;;;;;;;0.75;0.68;;;13.50;92.10;;;;;;5054058;28;20400;-85
2023/01/02 02:16:01;;;;;;;4.93;2.22;;;13.40;92.00;;;;;;5048757;28;20024;-85
2023/01/02 02:18:27;;;;;;;3.90;0.82;;;13.40;92.40;;;;;;5058953;28;20361;-85
2023/01/02 02:20:57;;;;;;;0.20;0.20;;;13.40;92.40;;;;;;5063297;28;20033;-85
2023/01/02 02:23:40;;;;;;;0.40;0.40;;;13.30;92.70;;;;;;5060129;28;20052;-84
2023/01/02 02:26:37;;;;;;;1.90;1.00;;;13.30;92.70;;;;;;5050801;28;20476;-85
2023/01/02 02:29:40;;;;;;;1.35;0.85;;;13.40;92.60;;;;;;5060147;28;20154;-85
2023/01/02 02:32:26;;;;;;;0.25;0.25;;;13.30;93.00;;;;;;5060925;28;20036;-85
2023/01/02 02:35:03;;;;;;;0.30;0.30;;;13.40;92.90;;;;;;5076580;28;20025;-84
2023/01/02 02:37:50;;;;;;;0.55;0.55;;;13.30;93.00;;;;;;5060689;28;20032;-85
2023/01/02 02:40:57;;;;;;;0.30;0.30;;;13.20;93.30;;;;;;5060091;28;20048;-85
2023/01/02 02:43:44;;;;;;;5.13;2.53;;;13.20;93.60;;;;;;5016475;28;20037;-85
2023/01/02 02:46:32;;;;;;;0.55;0.45;;;13.20;93.60;;;;;;5055621;28;20052;-84
2023/01/02 02:49:15;;;;;;;0.47;0.45;;;13.30;93.20;;;;;;5064815;28;20048;-84
2023/01/02 02:52:10;;;;;;;0.20;0.20;;;13.30;93.50;;;;;;5058421;28;20117;-83
2023/01/02 02:54:38;;;;;;;0.10;0.10;;;13.20;93.50;;;;;;5037760;28;20060;-85
2023/01/02 02:57:06;;;;;;;0.47;0.47;;;13.20;93.90;;;;;;5055943;28;20040;-85
2023/01/02 02:59:35;;;;;;;0.82;0.63;;;13.20;93.80;;;;;;5058258;28;20031;-86
2023/01/02 03:02:02;;;;;;;4.55;0.77;;;13.20;93.90;;;;;;5058915;28;20511;-85
2023/01/02 03:04:28;;;;;;;16.73;1.52;;;13.20;94.20;;;;;;5061265;28;20048;-86
2023/01/02 03:07:00;;;;;;;1.20;0.60;;;13.30;94.00;;;;;;5056029;28;20029;-85
2023/01/02 03:10:05;;;;;;;1.35;0.65;;;13.30;93.80;;;;;;5059410;28;20515;-82
2023/01/02 03:12:49;;;;;;;1.52;1.30;;;13.40;93.70;;;;;;5057968;28;20036;-82
2023/01/02 03:15:31;;;;;;;2.30;1.85;;;13.30;94.10;;;;;;5057864;28;20028;-83
2023/01/02 03:18:34;;;;;;;0.10;0.10;;;13.40;93.90;;;;;;5059290;28;20033;-83
2023/01/02 03:21:13;;;;;;;2.10;1.77;;;13.30;93.90;;;;;;5060039;28;20882;-83
2023/01/02 03:23:48;;;;;;;1.38;0.55;;;13.30;94.20;;;;;;5060728;28;20107;-82
2023/01/02 03:26:22;;;;;;;0.20;0.20;;;13.30;94.30;;;;;;5056413;28;20024;-82
2023/01/02 03:28:55;;;;;;;0.20;0.20;;;13.30;94.20;;;;;;5066214;28;20056;-83
2023/01/02 03:31:24;;;;;;;8.10;1.58;;;13.40;94.20;;;;;;5052750;28;20730;-83
2023/01/02 03:33:53;;;;;;;0.35;0.35;;;13.40;94.10;;;;;;5057190;28;20028;-82
2023/01/02 03:36:23;;;;;;;0.30;0.28;;;13.30;94.40;;;;;;5060003;28;20054;-82
2023/01/02 03:39:29;;;;;;;0.32;0.32;;;13.30;94.40;;;;;;5055977;28;20028;-82
2023/01/02 03:42:03;;;;;;;16.95;1.30;;;13.30;94.50;;;;;;5036041;28;21318;-84
2023/01/02 03:44:41;;;;;;;6.55;1.75;;;13.30;94.60;;;;;;5061051;28;20048;-84
2023/01/02 03:47:36;;;;;;;0.55;0.55;;;13.30;94.40;;;;;;5064074;28;20058;-84
2023/01/02 03:50:10;;;;;;;0.52;0.47;;;13.30;94.70;;;;;;5052991;28;20025;-84
2023/01/02 03:52:36;;;;;;;1.17;0.77;;;13.30;94.60;;;;;;5061554;28;20117;-84
2023/01/02 03:55:03;;;;;;;3.97;1.80;;;13.30;94.60;;;;;;5055306;28;20025;-83
2023/01/02 03:57:44;;;;;;;3.00;1.35;;;13.40;94.50;;;;;;5059570;28;20480;-83
2023/01/02 04:00:14;;;;;;;7.82;0.50;;;13.30;94.60;;;;;;5055798;28;20091;-84
2023/01/02 04:03:03;;;;;;;1.05;0.90;;;13.30;94.60;;;;;;5053455;28;20041;-83
2023/01/02 04:05:48;;;;;;;2.90;1.65;;;13.40;94.70;;;;;;5051198;28;20040;-84
2023/01/02 04:08:25;;;;;;;1.35;0.90;;;13.30;94.80;;;;;;5056952;28;20467;-84
2023/01/02 04:10:54;;;;;;;0.25;0.25;;;13.40;94.60;;;;;;5063841;28;20036;-84
2023/01/02 04:13:27;;;;;;;4.93;1.50;;;13.40;94.60;;;;;;5050852;28;20086;-83
2023/01/02 04:15:54;;;;;;;1.33;0.85;;;13.40;94.80;;;;;;5058117;28;20038;-84
2023/01/02 04:18:25;;;;;;;4.70;1.77;;;13.30;94.80;;;;;;5057435;28;20036;-84
2023/01/02 04:20:56;;;;;;;0.13;0.13;;;13.30;94.70;;;;;;5057326;28;20025;-84
2023/01/02 04:23:29;;;;;;;3.67;1.90;;;13.30;95.00;;;;;;5062839;28;20033;-86
2023/01/02 04:26:05;;;;;;;0.10;0.10;;;13.30;95.40;;;;;;5052536;28;20024;-84
2023/01/02 04:28:33;;;;;;;0.52;0.52;;;13.20;95.50;;;;;;5058931;28;20029;-84
2023/01/02 04:31:16;;;;;;;0.57;0.57;;;13.20;95.40;;;;;;5060222;28;20033;-84
2023/01/02 04:33:52;;;;;;;0.40;0.40;;;13.20;95.50;;;;;;5059892;28;20584;-85
2023/01/02 04:36:18;;;;;;;1.48;1.25;;;13.20;95.60;;;;;;5055123;28;20025;-85
2023/01/02 04:38:45;;;;;;;0.32;0.32;;;13.30;95.20;;;;;;5057695;28;20036;-84
2023/01/02 04:41:31;;;;;;;0.52;0.52;;;13.30;95.10;;;;;;5058632;28;20051;-83
2023/01/02 04:43:57;;;;;;;2.42;0.90;;;13.30;95.10;;;;;;5060957;28;20047;-84
2023/01/02 04:46:25;;;;;;;0.43;0.43;;;13.20;95.30;;;;;;5061007;28;20035;-84
2023/01/02 04:48:52;;;;;;;0.43;0.43;;;13.20;95.30;;;;;;5065921;28;20078;-83
2023/01/02 04:51:17;;;;;;;0.40;0.40;;;13.20;95.10;;;;;;5061546;28;20111;-82
2023/01/02 04:53:47;;;;;;;0.35;0.35;;;13.30;94.80;;;;;;5052268;28;20127;-82
2023/01/02 04:56:12;;;;;;;9.02;0.60;;;13.30;94.80;;;;;;5058777;28;20029;-84
2023/01/02 04:58:39;;;;;;;0.47;0.47;;;13.30;94.90;;;;;;5056616;28;20028;-85
2023/01/02 05:01:09;;;;;;;0.60;0.60;;;13.20;95.00;;;;;;5074841;28;20029;-84
2023/01/02 05:03:39;;;;;;;2.28;1.20;;;13.20;95.10;;;;;;5052128;28;20040;-85
2023/01/02 05:06:06;;;;;;;0.10;0.10;;;13.30;94.90;;;;;;5063718;28;20482;-84
2023/01/02 05:08:31;;;;;;;0.30;0.30;;;13.30;95.00;;;;;;5058859;28;20052;-84
2023/01/02 05:10:57;;;;;;;0.50;0.50;;;13.30;94.80;;;;;;5058508;28;20028;-85
2023/01/02 05:13:23;;;;;;;0.32;0.32;;;13.30;94.90;;;;;;5056843;28;20108;-84
2023/01/02 05:15:55;;;;;;;1.40;0.80;;;13.20;95.10;;;;;;5063394;28;20025;-84
2023/01/02 05:18:21;;;;;;;0.20;0.20;;;13.20;95.20;;;;;;5048934;28;20028;-83
2023/01/02 05:20:47;;;;;;;0.32;0.32;;;13.20;95.30;;;;;;5055382;28;20032;-82
2023/01/02 05:25:57;;;;;;;1.08;0.32;;;13.30;95.30;;;;;;5062850;28;20118;-83
2023/01/02 05:28:22;;;;;;;0.32;0.32;;;13.20;95.30;;;;;;5054740;28;20044;-83
2023/01/02 05:30:48;;;;;;;1.20;0.70;;;13.20;95.30;;;;;;5054564;28;21012;-83
2023/01/02 05:33:14;;;;;;;0.37;0.37;;;13.20;95.20;;;;;;5056056;28;20028;-83
2023/01/02 05:35:40;;;;;;;0.73;0.73;;;13.30;95.10;;;;;;5058621;28;20028;-83
2023/01/02 05:38:06;;;;;;;1.30;0.88;;;13.20;95.20;;;;;;5056434;28;20275;-85
2023/01/02 05:40:32;;;;;;;0.10;0.10;;;13.30;95.20;;;;;;5052091;28;20028;-83
2023/01/02 05:42:58;;;;;;;0.65;0.65;;;13.40;95.20;;;;;;5057317;28;20040;-85
2023/01/02 05:45:24;;;;;;;0.57;0.57;;;13.20;95.70;;;;;;5053557;28;20037;-85
2023/01/02 05:47:50;;;;;;;1.65;1.20;;;13.30;95.60;;;;;;5062686;28;20071;-83
2023/01/02 05:50:15;;;;;;;1.88;1.30;;;13.20;95.70;;;;;;5053003;28;20070;-86
2023/01/02 05:52:41;;;;;;;2.47;1.13;;;13.20;96.40;;;;;;5059547;28;20059;-84
2023/01/02 05:55:07;;;;;;;0.52;0.52;;;13.20;96.10;;;;;;5048380;28;20031;-86
2023/01/02 05:57:34;;;;;;;0.70;0.70;;;13.20;96.00;;;;;;5062968;28;20522;-86
2023/01/02 05:59:59;;;;;;;0.70;0.68;;;13.20;96.10;;;;;;5058914;28;20028;-86
2023/01/02 06:02:25;;;;;;;1.85;1.10;;;13.10;96.40;;;;;;5054091;28;20024;-86
2023/01/02 06:04:51;;;;;;;2.67;1.97;;;13.10;96.50;;;;;;5056595;28;20033;-86
2023/01/02 06:07:17;;;;;;;0.20;0.20;;;13.20;96.50;;;;;;5060578;28;20452;-86
2023/01/02 06:09:43;;;;;;;4.03;0.77;;;13.10;96.70;;;;;;5053616;28;20021;-86
2023/01/02 06:12:08;;;;;;;0.85;0.77;;;13.10;96.00;;;;;;5057864;28;20425;-87
2023/01/02 06:14:34;;;;;;;0.30;0.30;;;13.10;96.30;;;;;;5058422;28;20773;-89
2023/01/02 06:17:00;;;;;;;0.43;0.40;;;13.10;96.60;;;;;;5059154;28;20029;-87
2023/01/02 06:19:25;;;;;;;0.00;0.00;;;13.20;96.50;;;;;;5062569;28;20683;-86
2023/01/02 06:21:51;;;;;;;0.17;0.17;;;13.10;96.20;;;;;;5057236;28;20157;-87
2023/01/02 06:24:17;;;;;;;0.50;0.50;;;13.20;96.40;;;;;;5060383;28;20032;-94
2023/01/02 06:26:42;;;;;;;0.52;0.52;;;13.10;97.30;;;;;;5059775;28;20039;-90
2023/01/02 06:29:09;;;;;;;0.52;0.30;;;13.10;97.40;;;;;;5060350;28;20036;-88
2023/01/02 06:31:34;;;;;;;0.75;0.60;;;13.00;97.90;;;;;;5061892;28;20033;-83
2023/01/02 06:34:02;;;;;;;0.20;0.20;;;13.00;97.80;;;;;;5047874;28;20036;-85
2023/01/02 06:36:33;;;;;;;0.57;0.50;;;13.00;98.90;;;;;;5060521;28;20028;-84
2023/01/02 06:38:58;;;;;;;6.68;2.22;;;13.00;99.70;;;;;;5062599;28;20024;-85
2023/01/02 06:41:24;;;;;;;4.70;2.95;;;12.90;99.90;;;;;;5059483;28;20671;-85
2023/01/02 06:43:51;;;;;;;1.17;1.08;;;12.90;99.90;;;;;;5054864;28;20025;-85
2023/01/02 06:46:19;;;;;;;1.35;0.85;;;12.80;99.90;;;;;;5045429;28;20060;-84
2023/01/02 06:48:45;;;;;;;2.15;1.52;;;12.80;99.90;;;;;;5051176;28;20040;-84
2023/01/02 06:51:14;;;;;;;2.20;1.58;;;12.80;99.90;;;;;;5056805;28;20036;-84
2023/01/02 06:53:41;;;;;;;0.77;0.77;;;12.80;99.90;;;;;;5043983;28;20033;-84
2023/01/02 06:56:07;;;;;;;;;;;12.80;99.90;;;;;;5044445;28;20070;-84
2023/01/02 06:58:35;;;;;;;0.20;0.20;;;12.80;99.90;;;;;;5058265;28;19916;-83
2023/01/02 07:01:08;;;;;;;0.50;0.40;;;12.80;99.90;;;;;;5052743;28;20033;-83
2023/01/02 07:03:34;;;;;;;0.98;0.93;;;12.80;99.90;;;;;;5048997;28;20046;-82
2023/01/02 07:06:07;;;;;;;0.28;0.28;;;12.80;99.90;;;;;;5052595;28;20570;-81
2023/01/02 07:08:33;;;;;;;0.30;0.30;;;12.90;99.90;;;;;;5065590;28;20440;-84
2023/01/02 07:11:25;;;;;;;0.40;0.40;;;13.00;99.90;;;;;;5063610;28;20035;-84
2023/01/02 07:13:52;;;;;;;1.55;0.68;;;13.00;99.90;;;;;;5063473;28;20587;-84
2023/01/02 07:16:19;;;;;;;0.80;0.80;;;13.00;99.90;;;;;;5067503;28;20028;-83
2023/01/02 07:18:45;;;;;;;0.52;0.52;;;13.00;99.90;;;;;;5065104;28;20475;-84
2023/01/02 07:21:13;;;;;;;0.50;0.50;;;12.90;99.90;;;;;;5065226;28;20039;-82
2023/01/02 07:23:40;;;;;;;0.60;0.60;;;13.00;99.90;;;;;;5065453;28;20024;-84
2023/01/02 07:26:06;;;;;;;0.57;0.47;;;12.90;99.90;;;;;;5067878;28;20028;-83
2023/01/02 07:28:33;;;;;;;0.65;0.65;;;12.90;99.90;;;;;;5062929;28;20033;-85
2023/01/02 07:31:01;;;;;;;1.25;0.85;;;12.90;99.90;;;;;;5064002;28;20506;-84
2023/01/02 07:33:28;;;;;;;1.70;1.63;;;12.90;99.90;;;;;;5064749;28;20491;-84
2023/01/02 07:35:58;;;;;;;0.60;0.55;;;12.90;99.90;;;;;;5057055;28;20020;-84
2023/01/02 07:38:24;;;;;;;4.13;1.95;;;12.90;99.90;;;;;;5057433;28;20028;-84
2023/01/02 07:40:49;;;;;;;27.43;2.00;;;13.00;99.90;;;;;;5062421;28;20017;-84
2023/01/02 07:43:15;;;;;;;2.60;1.80;;;13.00;99.90;;;;;;5063860;28;20032;-85
2023/01/02 07:45:41;;;;;;;10.63;2.60;;;12.90;99.90;;;;;;5057969;28;20519;-84
2023/01/02 07:48:06;;;;;;;7.18;1.00;;;13.00;99.90;;;;;;5064794;28;20028;-85
2023/01/02 07:50:32;;;;;;;6.38;0.98;;;13.00;99.90;;;;;;5055446;28;20036;-83
2023/01/02 07:52:57;;;;;;;4.35;1.85;;;12.90;99.90;;;;;;5062308;28;20028;-83
2023/01/02 07:55:23;;;;;;;6.35;2.60;;;13.00;99.90;;;;;;5062366;28;20029;-85
2023/01/02 07:57:49;;;;;;;8.90;2.40;;;12.80;99.90;;;;;;5059311;28;20029;-86
2023/01/02 08:00:16;;;;;;;1.17;1.08;;;12.70;99.90;;;;;;5050515;28;20036;-85
2023/01/02 08:02:42;;;;;;;3.63;1.48;;;12.60;99.90;;;;;;5060433;28;20044;-86
2023/01/02 08:05:08;;;;;;;1.08;0.80;;;12.50;99.90;;;;;;5059756;28;20033;-85
2023/01/02 08:07:34;;;;;;;2.00;1.77;;;12.50;99.90;;;;;;5058539;28;20064;-84
2023/01/02 08:09:59;;;;;;;24.23;0.97;;;12.40;99.90;;;;;;5064001;28;22244;-83
2023/01/02 08:12:26;;;;;;;0.60;0.60;;;12.40;99.90;;;;;;5065786;28;20032;-82
2023/01/02 08:14:52;;;;;;;1.98;1.10;;;12.30;99.90;;;;;;5063323;28;20051;-84
2023/01/02 08:17:18;;;;;;;3.47;1.25;;;12.10;99.90;;;;;;5066144;28;20033;-85
2023/01/02 08:19:44;;;;;;;0.90;0.80;;;12.00;99.90;;;;;;5058685;28;20016;-84
2023/01/02 08:22:09;;;;;;;1.63;1.35;;;12.00;99.90;;;;;;5064191;28;20058;-82
2023/01/02 08:24:35;;;;;;;1.67;1.40;;;12.00;99.90;;;;;;5057630;28;20043;-83
2023/01/02 08:27:01;;;;;;;1.75;0.45;;;12.00;99.90;;;;;;5061535;28;20641;-81
2023/01/02 08:29:26;;;;;;;1.23;0.68;;;11.90;99.90;;;;;;5051067;28;20043;-84
2023/01/02 08:31:52;;;;;;;6.95;2.35;;;11.90;99.90;;;;;;5052995;28;20034;-83
2023/01/02 08:34:18;;;;;;;2.13;1.50;;;11.90;99.90;;;;;;5058778;28;20029;-84
2023/01/02 08:36:44;;;;;;;0.40;0.40;;;11.90;99.90;;;;;;5065967;28;20052;-84
2023/01/02 08:39:10;;;;;;;0.43;0.43;;;11.90;99.90;;;;;;5053336;28;20031;-84
2023/01/02 08:41:39;;;;;;;2.37;1.80;;;12.00;99.90;;;;;;5056969;28;20037;-83
2023/01/02 08:44:06;;;;;;;1.10;1.00;;;12.00;99.90;;;;;;5059725;28;20025;-84
2023/01/02 08:46:33;;;;;;;2.50;1.55;;;12.00;99.90;;;;;;5051016;28;20037;-85
2023/01/02 08:48:59;;;;;;;;;;;12.00;99.90;;;;;;5057488;28;20098;-85
2023/01/02 08:51:25;;;;;;;6.47;1.97;;;12.00;99.90;;;;;;5061861;28;20348;-85
2023/01/02 08:53:51;;;;;;;3.05;1.65;;;12.00;99.90;;;;;;5061818;28;20025;-85
2023/01/02 08:56:17;;;;;;;3.47;1.17;;;12.00;99.90;;;;;;5051701;28;20033;-86
2023/01/02 08:58:42;;;;;;;0.20;0.20;;;11.90;99.90;;;;;;5056473;28;20029;-85
2023/01/02 09:01:08;;;;;;;1.95;1.45;;;11.90;99.90;;;;;;5052768;28;20037;-83
2023/01/02 09:03:34;;;;;;;0.88;0.88;;;11.90;99.90;;;;;;5052048;28;20029;-85
2023/01/02 09:06:00;;;;;;;0.55;0.55;;;12.00;99.90;;;;;;5052018;28;20028;-86
2023/01/02 09:08:25;;;;;;;1.40;1.30;;;11.90;99.90;;;;;;5054428;28;20045;-84
2023/01/02 09:10:51;;;;;;;15.48;1.80;;;11.90;99.90;;;;;;5048405;28;20036;-84
2023/01/02 09:13:17;;;;;;;2.30;1.20;;;11.90;99.90;;;;;;5062838;28;20037;-85
2023/01/02 09:15:45;;;;;;;6.80;1.10;;;11.90;99.90;;;;;;5064780;28;20115;-85
2023/01/02 09:18:11;;;;;;;0.63;0.63;;;11.80;99.90;;;;;;5062599;28;20021;-86
2023/01/02 09:20:40;;;;;;;1.10;1.02;;;11.80;99.90;;;;;;5062770;28;20440;-85
2023/01/02 09:23:06;;;;;;;0.32;0.32;;;11.70;99.90;;;;;;5061884;28;20028;-85
2023/01/02 09:25:31;;;;;;;12.20;1.50;;;11.70;99.90;;;;;;5062541;28;20767;-85
2023/01/02 09:27:57;;;;;;;0.40;0.40;;;11.80;99.90;;;;;;5066568;28;20028;-85
2023/01/02 09:30:23;;;;;;;1.40;1.30;;;11.80;99.90;;;;;;5063023;28;20083;-84
2023/01/02 09:32:49;;;;;;;1.33;1.00;;;11.80;99.90;;;;;;5057002;28;20036;-85
2023/01/02 09:35:15;;;;;;;8.25;1.60;;;11.70;99.90;;;;;;5061956;28;20024;-85
2023/01/02 09:37:41;;;;;;;1.40;1.17;;;11.80;99.90;;;;;;5066836;28;20399;-84
2023/01/02 09:40:07;;;;;;;1.25;0.52;;;11.80;99.90;;;;;;5060486;28;20024;-85
2023/01/02 09:42:33;;;;;;;1.13;0.45;;;11.80;99.90;;;;;;5061578;28;20059;-85
2023/01/02 09:45:04;;;;;;;1.10;1.00;;;11.90;99.90;;;;;;5059298;28;20911;-85
2023/01/02 09:47:30;;;;;;;0.10;0.10;;;11.80;99.90;;;;;;5052837;28;20028;-85
2023/01/02 09:50:10;;;;;;;1.85;1.10;;;11.90;99.90;;;;;;5056159;28;20119;-85
2023/01/02 09:52:42;;;;;;;1.52;0.93;;;11.90;99.90;;;;;;5059560;28;20029;-85
2023/01/02 09:55:26;;;;;;;0.88;0.88;;;11.80;99.90;;;;;;5048446;28;20036;-84
2023/01/02 09:58:23;;;;;;;0.70;0.70;;;11.90;99.90;;;;;;5045502;28;20040;-84
2023/01/02 10:00:51;;;;;;;1.98;0.88;;;12.00;99.90;;;;;;5048897;28;20031;-85
2023/01/02 10:03:49;;;;;;;0.68;0.68;;;11.90;99.90;;;;;;5048256;28;20036;-85
2023/01/02 10:06:16;;;;;;;0.70;0.70;;;11.90;99.90;;;;;;5050777;28;20038;-84
2023/01/02 10:09:06;;;;;;;1.45;1.08;;;11.90;99.90;;;;;;5054704;28;20056;-85
2023/01/02 10:11:51;;;;;;;0.80;0.80;;;11.90;99.90;;;;;;5059008;28;20598;-84
2023/01/02 10:14:40;;;;;;;0.25;0.25;;;11.90;99.90;;;;;;5052046;28;20032;-84
2023/01/02 10:17:07;;;;;;;0.88;0.88;;;11.90;99.90;;;;;;5053651;28;20027;-85
2023/01/02 10:19:38;;;;;;;;;;;11.80;99.90;;;;;;5055116;28;20141;-84
2023/01/02 10:22:09;;;;;;;0.10;0.10;;;11.90;99.90;;;;;;5050836;28;19913;-84
2023/01/02 10:24:53;;;;;;;0.47;0.47;;;11.80;99.90;;;;;;5059439;28;20029;-84
2023/01/02 10:27:25;;;;;;;1.27;0.55;;;11.80;99.90;;;;;;5049099;28;20029;-84
2023/01/02 10:30:16;;;;;;;3.13;1.52;;;11.80;99.90;;;;;;5052841;28;20029;-84
2023/01/02 10:32:45;;;;;;;2.08;0.20;;;11.80;99.90;;;;;;5053980;28;20029;-84
2023/01/02 10:35:42;;;;;;;0.95;0.95;;;11.70;99.90;;;;;;5062265;28;20035;-84
2023/01/02 10:38:11;;;;;;;0.57;0.52;;;11.80;99.90;;;;;;5054621;28;20050;-84
2023/01/02 10:40:40;;;;;;;0.82;0.47;;;11.70;99.90;;;;;;5054421;28;21311;-85
2023/01/02 10:43:08;;;;;;;0.28;0.20;;;11.60;99.90;;;;;;5070054;28;20116;-85
2023/01/02 10:45:34;;;;;;;0.20;0.20;;;11.60;99.90;;;;;;5054885;28;20029;-84
2023/01/02 10:48:00;;;;;;;0.73;0.57;;;11.60;99.90;;;;;;5057392;28;20039;-84
2023/01/02 10:50:30;;;;;;;0.52;0.32;;;11.60;99.90;;;;;;5055930;28;20033;-84
2023/01/02 10:53:08;;;;;;;0.28;0.28;;;11.70;99.90;;;;;;5063368;28;20355;-85
2023/01/02 10:55:39;;;;;;;8.50;0.65;;;11.60;99.90;;;;;;5067144;28;20468;-83
2023/01/02 10:58:25;;;;;;;9.13;2.00;;;11.60;99.90;;;;;;5054267;28;20020;-84
2023/01/02 11:01:20;;;;;;;1.00;0.77;;;11.70;99.90;;;;;;5066752;28;20119;-84
2023/01/02 11:03:50;;;;;;;0.50;0.50;;;11.80;99.90;;;;;;5054171;28;20025;-84
2023/01/02 11:06:25;;;;;;;0.20;0.20;;;11.80;99.90;;;;;;5055410;28;20037;-84
2023/01/02 11:09:03;;;;;;;0.70;0.55;;;11.80;99.90;;;;;;5062078;28;20716;-84
2023/01/02 11:11:30;;;;;;;0.30;0.30;;;12.00;99.90;;;;;;5055172;28;20032;-84
2023/01/02 11:14:05;;;;;;;0.22;0.22;;;12.00;99.90;;;;;;5058650;28;20068;-83
2023/01/02 11:16:37;;;;;;;1.10;0.35;;;11.90;99.90;;;;;;5049782;28;20093;-84
2023/01/02 11:19:06;;;;;;;0.47;0.47;;;11.90;99.90;;;;;;5054704;28;20051;-86
2023/01/02 11:21:38;;;;;;;0.52;0.52;;;11.90;99.90;;;;;;5062425;28;20120;-84
2023/01/02 11:24:10;;;;;;;4.47;1.45;;;12.10;99.90;;;;;;5048732;28;20457;-85
2023/01/02 11:26:39;;;;;;;0.20;0.20;;;12.20;99.90;;;;;;5049955;28;20157;-86
2023/01/02 11:29:26;;;;;;;2.67;1.80;;;12.00;99.90;;;;;;5050877;28;20025;-87
2023/01/02 11:31:57;;;;;;;0.95;0.88;;;11.90;99.90;;;;;;5054914;28;20029;-89
2023/01/02 11:34:35;;;;;;;1.40;0.93;;;12.00;99.90;;;;;;5061385;28;20025;-88
2023/01/02 11:37:03;;;;;;;0.40;0.40;;;12.00;99.90;;;;;;5052693;28;20017;-85
2023/01/02 11:39:32;;;;;;;0.32;0.25;;;11.80;99.90;;;;;;5064424;28;20593;-89
2023/01/02 11:45:12;;;;;;;0.10;0.10;;;11.70;99.90;;;;;;5054995;28;20466;-87
2023/01/02 11:47:46;;;;;;;0.13;0.13;;;11.90;99.90;;;;;;5057080;28;20035;-87
2023/01/02 11:50:24;;;;;;;0.35;0.35;;;11.90;99.90;;;;;;5055848;28;20112;-90
2023/01/02 11:53:17;;;;;;;0.28;0.28;;;12.00;99.90;;;;;;5059996;28;20131;-86
2023/01/02 11:55:53;;;;;;;0.10;0.10;;;12.20;99.90;;;;;;5049707;28;20067;-89
2023/01/02 11:58:36;;;;;;;0.88;0.32;;;12.10;99.90;;;;;;5050504;28;20025;-86
2023/01/02 12:01:27;;;;;;;0.88;0.43;;;12.00;99.90;;;;;;5062916;28;20179;-86
2023/01/02 12:03:53;;;;;;;0.47;0.47;;;11.80;99.90;;;;;;5030808;28;20496;-87
2023/01/02 12:06:41;;;;;;;0.75;0.75;;;11.80;99.90;;;;;;5059732;28;20029;-88
2023/01/02 12:09:23;;;;;;;0.10;0.10;;;11.70;99.90;;;;;;5052616;28;20052;-87
2023/01/02 12:11:52;;;;;;;0.65;0.65;;;11.60;99.90;;;;;;5048539;28;20052;-86
2023/01/02 12:14:38;;;;;;;1.40;0.40;;;11.60;99.90;;;;;;5059241;28;20028;-86
2023/01/02 12:17:23;;;;;;;0.10;0.10;;;11.80;99.90;;;;;;5051540;28;20073;-87
2023/01/02 12:20:01;;;;;;;0.10;0.10;;;11.70;99.90;;;;;;5066328;28;20382;-86
2023/01/02 12:22:51;;;;;;;0.20;0.20;;;11.70;99.90;;;;;;5048175;28;20028;-86
2023/01/02 12:25:36;;;;;;;0.10;0.10;;;11.70;99.90;;;;;;5051906;28;20113;-89
2023/01/02 12:28:34;;;;;;;0.15;0.15;;;11.90;99.90;;;;;;5052099;28;20108;-87
2023/01/02 12:31:33;;;;;;;0.10;0.10;;;11.80;99.90;;;;;;5047215;28;20510;-88
2023/01/02 12:34:46;;;;;;;0.45;0.30;;;11.80;99.90;;;;;;5064168;28;20028;-89
2023/01/02 12:37:47;;;;;;;0.38;0.38;;;11.80;99.90;;;;;;5061565;28;20057;-86
2023/01/02 12:40:51;;;;;;;0.10;0.10;;;11.70;99.90;;;;;;5041801;28;20420;-88
2023/01/02 12:43:46;;;;;;;0.15;0.15;;;11.60;99.90;;;;;;5019282;28;20686;-86
2023/01/02 12:46:38;;;;;;;1.25;0.65;;;11.80;99.90;;;;;;5049295;28;20041;-87
2023/01/02 12:49:19;;;;;;;0.10;0.10;;;11.80;99.90;;;;;;5052746;28;20043;-87
2023/01/02 12:52:02;;;;;;;1.85;1.38;;;11.80;99.90;;;;;;5060567;28;20040;-86
2023/01/02 12:55:02;;;;;;;0.88;0.40;;;11.90;99.90;;;;;;5051766;28;20681;-86
2023/01/02 12:57:41;;;;;;;0.10;0.10;;;11.80;99.90;;;;;;5049060;28;20604;-86
2023/01/02 13:00:12;;;;;;;0.10;0.10;;;11.70;99.90;;;;;;5045776;28;20084;-86
2023/01/02 13:03:18;;;;;;;0.10;0.10;;;11.70;99.90;;;;;;5047268;28;20074;-87
2023/01/02 13:05:50;;;;;;;0.30;0.30;;;11.50;99.90;;;;;;5002494;28;20037;-87
2023/01/02 13:08:25;;;;;;;0.73;0.43;;;11.40;99.90;;;;;;5039887;28;20596;-86
2023/01/02 13:10:52;;;;;;;0.10;0.10;;;11.30;99.90;;;;;;5046716;28;20021;-87
2023/01/02 13:13:19;;;;;;;0.10;0.10;;;11.40;99.90;;;;;;5049372;28;20095;-86
2023/01/02 13:15:49;;;;;;;0.15;0.15;;;11.50;99.90;;;;;;5060668;28;20618;-86
2023/01/02 13:18:50;;;;;;;0.22;0.22;;;11.50;99.90;;;;;;5053771;28;20050;-87